sensor_id;sensor_type;location;lat;lon;timestamp;P1;durP1;ratioP1;P2;durP2;ratioP2
83435;SDS011;73365;51.688;5.132;2024-02-28T00:01:50;11.98;;;8.05;;
83435;SDS011;73365;51.688;5.132;2024-02-28T00:04:16;11.32;;;7.40;;
83435;SDS011;73365;51.688;5.132;2024-02-28T00:09:08;13.20;;;8.20;;
83435;SDS011;73365;51.688;5.132;2024-02-28T00:11:33;13.52;;;8.40;;
83435;SDS011;73365;51.688;5.132;2024-02-28T00:16:26;10.65;;;7.53;;
83435;SDS011;73365;51.688;5.132;2024-02-28T00:18:52;12.65;;;7.95;;
83435;SDS011;73365;51.688;5.132;2024-02-28T00:21:18;10.52;;;8.27;;
83435;SDS011;73365;51.688;5.132;2024-02-28T00:23:44;10.65;;;7.82;;
83435;SDS011;73365;51.688;5.132;2024-02-28T00:26:11;12.30;;;7.97;;
83435;SDS011;73365;51.688;5.132;2024-02-28T00:28:38;12.02;;;8.23;;
83435;SDS011;73365;51.688;5.132;2024-02-28T00:31:03;13.85;;;7.90;;
83435;SDS011;73365;51.688;5.132;2024-02-28T00:33:29;12.98;;;8.55;;
83435;SDS011;73365;51.688;5.132;2024-02-28T00:35:54;12.35;;;8.10;;
83435;SDS011;73365;51.688;5.132;2024-02-28T00:38:22;11.80;;;8.02;;
83435;SDS011;73365;51.688;5.132;2024-02-28T00:40:47;9.95;;;7.80;;
83435;SDS011;73365;51.688;5.132;2024-02-28T00:43:13;13.45;;;8.30;;
83435;SDS011;73365;51.688;5.132;2024-02-28T00:45:38;11.13;;;8.27;;
83435;SDS011;73365;51.688;5.132;2024-02-28T00:48:03;11.88;;;7.93;;
83435;SDS011;73365;51.688;5.132;2024-02-28T00:50:29;10.68;;;7.72;;
83435;SDS011;73365;51.688;5.132;2024-02-28T00:52:55;11.75;;;8.45;;
83435;SDS011;73365;51.688;5.132;2024-02-28T00:55:20;11.63;;;8.45;;
83435;SDS011;73365;51.688;5.132;2024-02-28T00:57:45;11.95;;;7.95;;
83435;SDS011;73365;51.688;5.132;2024-02-28T01:00:11;11.10;;;8.23;;
83435;SDS011;73365;51.688;5.132;2024-02-28T01:02:37;12.27;;;8.68;;
83435;SDS011;73365;51.688;5.132;2024-02-28T01:05:02;11.90;;;8.02;;
83435;SDS011;73365;51.688;5.132;2024-02-28T01:07:27;12.02;;;8.13;;
83435;SDS011;73365;51.688;5.132;2024-02-28T01:09:54;10.60;;;7.78;;
83435;SDS011;73365;51.688;5.132;2024-02-28T01:12:19;11.48;;;7.78;;
83435;SDS011;73365;51.688;5.132;2024-02-28T01:14:45;12.65;;;8.02;;
83435;SDS011;73365;51.688;5.132;2024-02-28T01:17:10;11.23;;;8.23;;
83435;SDS011;73365;51.688;5.132;2024-02-28T01:19:36;12.23;;;7.57;;
83435;SDS011;73365;51.688;5.132;2024-02-28T01:22:01;11.70;;;8.38;;
83435;SDS011;73365;51.688;5.132;2024-02-28T01:24:26;12.45;;;8.05;;
83435;SDS011;73365;51.688;5.132;2024-02-28T01:26:52;11.15;;;7.80;;
83435;SDS011;73365;51.688;5.132;2024-02-28T01:29:17;12.57;;;8.02;;
83435;SDS011;73365;51.688;5.132;2024-02-28T01:31:43;16.77;;;9.05;;
83435;SDS011;73365;51.688;5.132;2024-02-28T01:34:09;12.55;;;8.13;;
83435;SDS011;73365;51.688;5.132;2024-02-28T01:36:35;10.73;;;7.90;;
83435;SDS011;73365;51.688;5.132;2024-02-28T01:39:00;11.32;;;8.07;;
83435;SDS011;73365;51.688;5.132;2024-02-28T01:41:25;11.73;;;8.10;;
83435;SDS011;73365;51.688;5.132;2024-02-28T01:43:51;13.57;;;7.93;;
83435;SDS011;73365;51.688;5.132;2024-02-28T01:46:28;13.68;;;7.68;;
83435;SDS011;73365;51.688;5.132;2024-02-28T01:48:54;9.95;;;7.35;;
83435;SDS011;73365;51.688;5.132;2024-02-28T01:51:20;11.00;;;8.23;;
83435;SDS011;73365;51.688;5.132;2024-02-28T01:53:48;9.50;;;7.25;;
83435;SDS011;73365;51.688;5.132;2024-02-28T01:56:15;10.25;;;8.07;;
83435;SDS011;73365;51.688;5.132;2024-02-28T01:58:42;10.00;;;7.80;;
83435;SDS011;73365;51.688;5.132;2024-02-28T02:01:08;11.02;;;7.72;;
83435;SDS011;73365;51.688;5.132;2024-02-28T02:03:35;12.27;;;7.60;;
83435;SDS011;73365;51.688;5.132;2024-02-28T02:06:03;12.48;;;7.88;;
83435;SDS011;73365;51.688;5.132;2024-02-28T02:08:29;10.77;;;7.55;;
83435;SDS011;73365;51.688;5.132;2024-02-28T02:10:55;11.32;;;7.70;;
83435;SDS011;73365;51.688;5.132;2024-02-28T02:13:21;11.30;;;7.90;;
83435;SDS011;73365;51.688;5.132;2024-02-28T02:15:46;10.25;;;8.05;;
83435;SDS011;73365;51.688;5.132;2024-02-28T02:18:12;11.25;;;7.45;;
83435;SDS011;73365;51.688;5.132;2024-02-28T02:20:38;11.82;;;7.25;;
83435;SDS011;73365;51.688;5.132;2024-02-28T02:23:08;9.43;;;6.95;;
83435;SDS011;73365;51.688;5.132;2024-02-28T02:25:33;11.88;;;8.00;;
83435;SDS011;73365;51.688;5.132;2024-02-28T02:28:00;9.93;;;7.60;;
83435;SDS011;73365;51.688;5.132;2024-02-28T02:30:25;10.10;;;7.45;;
83435;SDS011;73365;51.688;5.132;2024-02-28T02:32:50;10.15;;;7.32;;
83435;SDS011;73365;51.688;5.132;2024-02-28T02:35:16;9.93;;;6.97;;
83435;SDS011;73365;51.688;5.132;2024-02-28T02:37:44;11.82;;;7.20;;
83435;SDS011;73365;51.688;5.132;2024-02-28T02:40:15;10.18;;;6.88;;
83435;SDS011;73365;51.688;5.132;2024-02-28T02:42:40;9.18;;;6.85;;
83435;SDS011;73365;51.688;5.132;2024-02-28T02:45:06;9.40;;;6.35;;
83435;SDS011;73365;51.688;5.132;2024-02-28T02:47:31;8.65;;;7.10;;
83435;SDS011;73365;51.688;5.132;2024-02-28T02:49:56;10.32;;;6.75;;
83435;SDS011;73365;51.688;5.132;2024-02-28T02:52:22;9.30;;;7.00;;
83435;SDS011;73365;51.688;5.132;2024-02-28T02:54:47;9.45;;;7.00;;
83435;SDS011;73365;51.688;5.132;2024-02-28T02:57:13;8.90;;;7.18;;
83435;SDS011;73365;51.688;5.132;2024-02-28T02:59:38;10.57;;;7.32;;
83435;SDS011;73365;51.688;5.132;2024-02-28T03:02:03;9.23;;;6.63;;
83435;SDS011;73365;51.688;5.132;2024-02-28T03:04:29;11.20;;;7.18;;
83435;SDS011;73365;51.688;5.132;2024-02-28T03:06:54;8.80;;;7.05;;
83435;SDS011;73365;51.688;5.132;2024-02-28T03:09:20;10.85;;;7.35;;
83435;SDS011;73365;51.688;5.132;2024-02-28T03:11:45;8.27;;;6.72;;
83435;SDS011;73365;51.688;5.132;2024-02-28T03:14:10;9.57;;;7.57;;
83435;SDS011;73365;51.688;5.132;2024-02-28T03:16:40;11.15;;;7.38;;
83435;SDS011;73365;51.688;5.132;2024-02-28T03:19:06;10.88;;;7.15;;
83435;SDS011;73365;51.688;5.132;2024-02-28T03:21:31;8.50;;;7.05;;
83435;SDS011;73365;51.688;5.132;2024-02-28T03:23:57;10.30;;;7.45;;
83435;SDS011;73365;51.688;5.132;2024-02-28T03:26:22;9.95;;;7.13;;
83435;SDS011;73365;51.688;5.132;2024-02-28T03:28:48;10.48;;;7.60;;
83435;SDS011;73365;51.688;5.132;2024-02-28T03:31:13;8.10;;;6.32;;
83435;SDS011;73365;51.688;5.132;2024-02-28T03:33:39;9.10;;;7.03;;
83435;SDS011;73365;51.688;5.132;2024-02-28T03:36:04;10.27;;;7.68;;
83435;SDS011;73365;51.688;5.132;2024-02-28T03:38:30;9.27;;;6.70;;
83435;SDS011;73365;51.688;5.132;2024-02-28T03:40:55;9.27;;;7.22;;
83435;SDS011;73365;51.688;5.132;2024-02-28T03:43:21;11.70;;;6.82;;
83435;SDS011;73365;51.688;5.132;2024-02-28T03:45:47;8.82;;;7.13;;
83435;SDS011;73365;51.688;5.132;2024-02-28T03:48:13;9.75;;;6.80;;
83435;SDS011;73365;51.688;5.132;2024-02-28T03:50:38;10.10;;;7.53;;
83435;SDS011;73365;51.688;5.132;2024-02-28T03:53:04;13.43;;;7.82;;
83435;SDS011;73365;51.688;5.132;2024-02-28T03:55:32;11.88;;;7.22;;
83435;SDS011;73365;51.688;5.132;2024-02-28T03:57:57;9.55;;;7.70;;
83435;SDS011;73365;51.688;5.132;2024-02-28T04:00:23;9.98;;;7.03;;
83435;SDS011;73365;51.688;5.132;2024-02-28T04:02:50;10.55;;;7.15;;
83435;SDS011;73365;51.688;5.132;2024-02-28T04:05:16;12.93;;;7.75;;
83435;SDS011;73365;51.688;5.132;2024-02-28T04:10:07;9.10;;;7.10;;
83435;SDS011;73365;51.688;5.132;2024-02-28T04:12:33;8.25;;;7.13;;
83435;SDS011;73365;51.688;5.132;2024-02-28T04:14:59;11.18;;;7.60;;
83435;SDS011;73365;51.688;5.132;2024-02-28T04:17:24;11.43;;;7.47;;
83435;SDS011;73365;51.688;5.132;2024-02-28T04:19:49;10.77;;;7.25;;
83435;SDS011;73365;51.688;5.132;2024-02-28T04:22:15;13.70;;;7.50;;
83435;SDS011;73365;51.688;5.132;2024-02-28T04:24:41;15.15;;;8.15;;
83435;SDS011;73365;51.688;5.132;2024-02-28T04:27:06;12.60;;;7.53;;
83435;SDS011;73365;51.688;5.132;2024-02-28T04:29:34;11.30;;;7.95;;
83435;SDS011;73365;51.688;5.132;2024-02-28T04:32:00;10.20;;;7.38;;
83435;SDS011;73365;51.688;5.132;2024-02-28T04:34:25;11.02;;;7.70;;
83435;SDS011;73365;51.688;5.132;2024-02-28T04:36:50;12.02;;;7.72;;
83435;SDS011;73365;51.688;5.132;2024-02-28T04:39:16;13.32;;;7.82;;
83435;SDS011;73365;51.688;5.132;2024-02-28T04:41:41;11.13;;;7.60;;
83435;SDS011;73365;51.688;5.132;2024-02-28T04:44:06;12.55;;;8.68;;
83435;SDS011;73365;51.688;5.132;2024-02-28T04:46:33;9.52;;;8.10;;
83435;SDS011;73365;51.688;5.132;2024-02-28T04:49:02;13.57;;;8.80;;
83435;SDS011;73365;51.688;5.132;2024-02-28T04:51:28;13.60;;;8.07;;
83435;SDS011;73365;51.688;5.132;2024-02-28T04:53:53;12.10;;;8.18;;
83435;SDS011;73365;51.688;5.132;2024-02-28T04:56:18;14.98;;;9.05;;
83435;SDS011;73365;51.688;5.132;2024-02-28T04:58:44;14.93;;;8.35;;
83435;SDS011;73365;51.688;5.132;2024-02-28T05:01:09;13.38;;;8.90;;
83435;SDS011;73365;51.688;5.132;2024-02-28T05:03:35;11.10;;;8.00;;
83435;SDS011;73365;51.688;5.132;2024-02-28T05:06:01;11.60;;;8.38;;
83435;SDS011;73365;51.688;5.132;2024-02-28T05:08:26;13.68;;;8.73;;
83435;SDS011;73365;51.688;5.132;2024-02-28T05:10:53;11.38;;;8.98;;
83435;SDS011;73365;51.688;5.132;2024-02-28T05:13:19;14.10;;;9.05;;
83435;SDS011;73365;51.688;5.132;2024-02-28T05:15:44;11.85;;;8.95;;
83435;SDS011;73365;51.688;5.132;2024-02-28T05:18:09;15.23;;;8.50;;
83435;SDS011;73365;51.688;5.132;2024-02-28T05:20:35;12.40;;;9.15;;
83435;SDS011;73365;51.688;5.132;2024-02-28T05:23:00;14.45;;;9.80;;
83435;SDS011;73365;51.688;5.132;2024-02-28T05:25:25;12.15;;;8.88;;
83435;SDS011;73365;51.688;5.132;2024-02-28T05:27:51;12.65;;;9.43;;
83435;SDS011;73365;51.688;5.132;2024-02-28T05:30:17;12.05;;;9.68;;
83435;SDS011;73365;51.688;5.132;2024-02-28T05:32:42;13.20;;;9.45;;
83435;SDS011;73365;51.688;5.132;2024-02-28T05:35:08;12.57;;;9.30;;
83435;SDS011;73365;51.688;5.132;2024-02-28T05:37:36;17.10;;;10.32;;
83435;SDS011;73365;51.688;5.132;2024-02-28T05:40:02;13.25;;;9.68;;
83435;SDS011;73365;51.688;5.132;2024-02-28T05:42:27;13.20;;;9.82;;
83435;SDS011;73365;51.688;5.132;2024-02-28T05:44:53;14.40;;;10.15;;
83435;SDS011;73365;51.688;5.132;2024-02-28T05:47:19;16.37;;;10.60;;
83435;SDS011;73365;51.688;5.132;2024-02-28T05:49:44;13.50;;;9.68;;
83435;SDS011;73365;51.688;5.132;2024-02-28T05:52:11;14.55;;;10.18;;
83435;SDS011;73365;51.688;5.132;2024-02-28T05:54:37;13.90;;;10.88;;
83435;SDS011;73365;51.688;5.132;2024-02-28T05:57:02;15.18;;;10.43;;
83435;SDS011;73365;51.688;5.132;2024-02-28T05:59:28;14.32;;;9.77;;
83435;SDS011;73365;51.688;5.132;2024-02-28T06:01:54;15.77;;;10.43;;
83435;SDS011;73365;51.688;5.132;2024-02-28T06:04:19;13.65;;;10.55;;
83435;SDS011;73365;51.688;5.132;2024-02-28T06:06:44;12.48;;;10.25;;
83435;SDS011;73365;51.688;5.132;2024-02-28T06:09:10;16.92;;;11.48;;
83435;SDS011;73365;51.688;5.132;2024-02-28T06:11:35;13.93;;;9.75;;
83435;SDS011;73365;51.688;5.132;2024-02-28T06:14:01;14.32;;;10.68;;
83435;SDS011;73365;51.688;5.132;2024-02-28T06:16:28;16.23;;;10.07;;
83435;SDS011;73365;51.688;5.132;2024-02-28T06:18:54;16.40;;;11.02;;
83435;SDS011;73365;51.688;5.132;2024-02-28T06:21:21;14.70;;;10.20;;
83435;SDS011;73365;51.688;5.132;2024-02-28T06:23:48;15.48;;;10.38;;
83435;SDS011;73365;51.688;5.132;2024-02-28T06:26:15;16.17;;;10.65;;
83435;SDS011;73365;51.688;5.132;2024-02-28T06:28:44;15.45;;;11.18;;
83435;SDS011;73365;51.688;5.132;2024-02-28T06:31:16;18.35;;;11.50;;
83435;SDS011;73365;51.688;5.132;2024-02-28T06:33:42;18.83;;;11.90;;
83435;SDS011;73365;51.688;5.132;2024-02-28T06:36:10;18.73;;;11.98;;
83435;SDS011;73365;51.688;5.132;2024-02-28T06:38:37;16.63;;;11.25;;
83435;SDS011;73365;51.688;5.132;2024-02-28T06:41:03;15.88;;;10.88;;
83435;SDS011;73365;51.688;5.132;2024-02-28T06:43:35;18.25;;;11.65;;
83435;SDS011;73365;51.688;5.132;2024-02-28T06:46:01;16.02;;;11.07;;
83435;SDS011;73365;51.688;5.132;2024-02-28T06:48:27;16.17;;;11.63;;
83435;SDS011;73365;51.688;5.132;2024-02-28T06:53:19;18.95;;;11.75;;
83435;SDS011;73365;51.688;5.132;2024-02-28T06:55:45;17.05;;;11.75;;
83435;SDS011;73365;51.688;5.132;2024-02-28T06:58:10;17.63;;;11.93;;
83435;SDS011;73365;51.688;5.132;2024-02-28T07:00:36;19.95;;;12.32;;
83435;SDS011;73365;51.688;5.132;2024-02-28T07:03:01;16.15;;;12.02;;
83435;SDS011;73365;51.688;5.132;2024-02-28T07:05:29;18.10;;;12.13;;
83435;SDS011;73365;51.688;5.132;2024-02-28T07:07:55;16.58;;;11.13;;
83435;SDS011;73365;51.688;5.132;2024-02-28T07:10:21;18.23;;;11.88;;
83435;SDS011;73365;51.688;5.132;2024-02-28T07:12:46;22.95;;;12.13;;
83435;SDS011;73365;51.688;5.132;2024-02-28T07:15:13;18.30;;;11.63;;
83435;SDS011;73365;51.688;5.132;2024-02-28T07:17:38;23.35;;;13.15;;
83435;SDS011;73365;51.688;5.132;2024-02-28T07:20:07;16.23;;;11.32;;
83435;SDS011;73365;51.688;5.132;2024-02-28T07:22:33;18.65;;;12.45;;
83435;SDS011;73365;51.688;5.132;2024-02-28T07:24:58;18.25;;;12.65;;
83435;SDS011;73365;51.688;5.132;2024-02-28T07:27:24;20.70;;;12.55;;
83435;SDS011;73365;51.688;5.132;2024-02-28T07:29:49;19.10;;;12.82;;
83435;SDS011;73365;51.688;5.132;2024-02-28T07:32:15;22.23;;;13.00;;
83435;SDS011;73365;51.688;5.132;2024-02-28T07:34:40;19.08;;;12.88;;
83435;SDS011;73365;51.688;5.132;2024-02-28T07:37:06;21.25;;;13.15;;
83435;SDS011;73365;51.688;5.132;2024-02-28T07:39:31;21.50;;;12.20;;
83435;SDS011;73365;51.688;5.132;2024-02-28T07:41:57;20.23;;;12.50;;
83435;SDS011;73365;51.688;5.132;2024-02-28T07:44:22;19.25;;;12.25;;
83435;SDS011;73365;51.688;5.132;2024-02-28T07:46:48;21.00;;;12.45;;
83435;SDS011;73365;51.688;5.132;2024-02-28T07:49:15;17.23;;;11.95;;
83435;SDS011;73365;51.688;5.132;2024-02-28T07:51:41;21.83;;;13.15;;
83435;SDS011;73365;51.688;5.132;2024-02-28T07:54:06;17.48;;;11.85;;
83435;SDS011;73365;51.688;5.132;2024-02-28T07:56:32;18.98;;;12.90;;
83435;SDS011;73365;51.688;5.132;2024-02-28T07:58:57;20.80;;;12.35;;
83435;SDS011;73365;51.688;5.132;2024-02-28T08:01:23;20.58;;;12.52;;
83435;SDS011;73365;51.688;5.132;2024-02-28T08:03:48;21.08;;;12.88;;
83435;SDS011;73365;51.688;5.132;2024-02-28T08:06:13;20.55;;;13.40;;
83435;SDS011;73365;51.688;5.132;2024-02-28T08:08:43;20.10;;;13.10;;
83435;SDS011;73365;51.688;5.132;2024-02-28T08:11:10;19.42;;;12.40;;
83435;SDS011;73365;51.688;5.132;2024-02-28T08:13:35;17.85;;;12.18;;
83435;SDS011;73365;51.688;5.132;2024-02-28T08:16:01;22.80;;;13.77;;
83435;SDS011;73365;51.688;5.132;2024-02-28T08:18:26;19.45;;;11.75;;
83435;SDS011;73365;51.688;5.132;2024-02-28T08:23:18;18.58;;;12.60;;
83435;SDS011;73365;51.688;5.132;2024-02-28T08:25:43;22.02;;;13.15;;
83435;SDS011;73365;51.688;5.132;2024-02-28T08:28:09;25.05;;;11.65;;
83435;SDS011;73365;51.688;5.132;2024-02-28T08:30:34;26.40;;;13.90;;
83435;SDS011;73365;51.688;5.132;2024-02-28T08:33:00;19.77;;;12.63;;
83435;SDS011;73365;51.688;5.132;2024-02-28T08:35:25;24.70;;;13.07;;
83435;SDS011;73365;51.688;5.132;2024-02-28T08:37:51;17.92;;;12.82;;
83435;SDS011;73365;51.688;5.132;2024-02-28T08:40:16;21.35;;;13.13;;
83435;SDS011;73365;51.688;5.132;2024-02-28T08:42:43;22.00;;;12.40;;
83435;SDS011;73365;51.688;5.132;2024-02-28T08:45:11;19.88;;;12.57;;
83435;SDS011;73365;51.688;5.132;2024-02-28T08:47:36;21.35;;;13.23;;
83435;SDS011;73365;51.688;5.132;2024-02-28T08:50:02;21.13;;;13.15;;
83435;SDS011;73365;51.688;5.132;2024-02-28T08:52:27;20.63;;;12.55;;
83435;SDS011;73365;51.688;5.132;2024-02-28T08:54:54;20.13;;;12.25;;
83435;SDS011;73365;51.688;5.132;2024-02-28T08:57:19;21.70;;;13.27;;
83435;SDS011;73365;51.688;5.132;2024-02-28T08:59:47;21.83;;;13.70;;
83435;SDS011;73365;51.688;5.132;2024-02-28T09:02:12;21.98;;;13.05;;
83435;SDS011;73365;51.688;5.132;2024-02-28T09:04:38;20.40;;;12.80;;
83435;SDS011;73365;51.688;5.132;2024-02-28T09:07:04;23.02;;;13.30;;
83435;SDS011;73365;51.688;5.132;2024-02-28T09:09:29;25.48;;;13.90;;
83435;SDS011;73365;51.688;5.132;2024-02-28T09:12:00;24.20;;;13.25;;
83435;SDS011;73365;51.688;5.132;2024-02-28T09:14:28;22.73;;;13.20;;
83435;SDS011;73365;51.688;5.132;2024-02-28T09:16:53;23.52;;;13.00;;
83435;SDS011;73365;51.688;5.132;2024-02-28T09:19:21;21.52;;;12.38;;
83435;SDS011;73365;51.688;5.132;2024-02-28T09:21:46;24.35;;;14.40;;
83435;SDS011;73365;51.688;5.132;2024-02-28T09:24:13;24.00;;;13.70;;
83435;SDS011;73365;51.688;5.132;2024-02-28T09:26:41;22.90;;;14.20;;
83435;SDS011;73365;51.688;5.132;2024-02-28T09:29:06;22.15;;;13.52;;
83435;SDS011;73365;51.688;5.132;2024-02-28T09:31:32;22.70;;;13.70;;
83435;SDS011;73365;51.688;5.132;2024-02-28T09:33:57;24.80;;;13.18;;
83435;SDS011;73365;51.688;5.132;2024-02-28T09:36:23;21.10;;;13.73;;
83435;SDS011;73365;51.688;5.132;2024-02-28T09:38:49;29.23;;;14.50;;
83435;SDS011;73365;51.688;5.132;2024-02-28T09:41:14;25.67;;;14.35;;
83435;SDS011;73365;51.688;5.132;2024-02-28T09:43:41;23.95;;;13.70;;
83435;SDS011;73365;51.688;5.132;2024-02-28T09:46:07;22.67;;;12.68;;
83435;SDS011;73365;51.688;5.132;2024-02-28T09:48:36;23.13;;;13.00;;
83435;SDS011;73365;51.688;5.132;2024-02-28T09:51:03;24.95;;;13.57;;
83435;SDS011;73365;51.688;5.132;2024-02-28T09:53:30;21.63;;;13.65;;
83435;SDS011;73365;51.688;5.132;2024-02-28T09:55:55;24.75;;;13.50;;
83435;SDS011;73365;51.688;5.132;2024-02-28T09:58:21;26.30;;;14.15;;
83435;SDS011;73365;51.688;5.132;2024-02-28T10:00:46;23.83;;;14.38;;
83435;SDS011;73365;51.688;5.132;2024-02-28T10:03:13;22.73;;;14.10;;
83435;SDS011;73365;51.688;5.132;2024-02-28T10:05:45;22.35;;;13.27;;
83435;SDS011;73365;51.688;5.132;2024-02-28T10:08:13;20.77;;;12.90;;
83435;SDS011;73365;51.688;5.132;2024-02-28T10:10:48;23.30;;;13.43;;
83435;SDS011;73365;51.688;5.132;2024-02-28T10:13:17;22.67;;;13.20;;
83435;SDS011;73365;51.688;5.132;2024-02-28T10:15:43;21.35;;;12.73;;
83435;SDS011;73365;51.688;5.132;2024-02-28T10:18:09;20.70;;;13.27;;
83435;SDS011;73365;51.688;5.132;2024-02-28T10:20:35;23.60;;;13.63;;
83435;SDS011;73365;51.688;5.132;2024-02-28T10:23:04;23.63;;;14.15;;
83435;SDS011;73365;51.688;5.132;2024-02-28T10:25:30;25.13;;;13.88;;
83435;SDS011;73365;51.688;5.132;2024-02-28T10:28:00;24.83;;;14.00;;
83435;SDS011;73365;51.688;5.132;2024-02-28T10:30:26;23.02;;;13.10;;
83435;SDS011;73365;51.688;5.132;2024-02-28T10:32:51;25.42;;;14.10;;
83435;SDS011;73365;51.688;5.132;2024-02-28T10:35:17;26.15;;;13.82;;
83435;SDS011;73365;51.688;5.132;2024-02-28T10:37:50;25.73;;;13.85;;
83435;SDS011;73365;51.688;5.132;2024-02-28T10:42:42;26.20;;;14.03;;
83435;SDS011;73365;51.688;5.132;2024-02-28T10:45:09;23.13;;;13.23;;
83435;SDS011;73365;51.688;5.132;2024-02-28T10:47:38;27.70;;;14.02;;
83435;SDS011;73365;51.688;5.132;2024-02-28T10:50:05;24.70;;;13.90;;
83435;SDS011;73365;51.688;5.132;2024-02-28T10:52:32;27.50;;;13.77;;
83435;SDS011;73365;51.688;5.132;2024-02-28T10:54:58;27.67;;;14.23;;
83435;SDS011;73365;51.688;5.132;2024-02-28T10:57:25;27.63;;;13.82;;
83435;SDS011;73365;51.688;5.132;2024-02-28T10:59:51;25.85;;;14.30;;
83435;SDS011;73365;51.688;5.132;2024-02-28T11:02:16;23.73;;;14.23;;
83435;SDS011;73365;51.688;5.132;2024-02-28T11:04:42;21.83;;;13.90;;
83435;SDS011;73365;51.688;5.132;2024-02-28T11:07:07;24.42;;;13.60;;
83435;SDS011;73365;51.688;5.132;2024-02-28T11:09:33;25.93;;;14.23;;
83435;SDS011;73365;51.688;5.132;2024-02-28T11:11:59;25.95;;;14.00;;
83435;SDS011;73365;51.688;5.132;2024-02-28T11:14:24;27.48;;;15.25;;
83435;SDS011;73365;51.688;5.132;2024-02-28T11:17:04;27.27;;;14.93;;
83435;SDS011;73365;51.688;5.132;2024-02-28T11:19:30;26.58;;;15.20;;
83435;SDS011;73365;51.688;5.132;2024-02-28T11:21:57;28.88;;;15.65;;
83435;SDS011;73365;51.688;5.132;2024-02-28T11:24:24;29.58;;;15.63;;
83435;SDS011;73365;51.688;5.132;2024-02-28T11:26:51;28.88;;;15.50;;
83435;SDS011;73365;51.688;5.132;2024-02-28T11:29:21;26.00;;;14.85;;
83435;SDS011;73365;51.688;5.132;2024-02-28T11:31:48;26.65;;;14.82;;
83435;SDS011;73365;51.688;5.132;2024-02-28T11:34:13;26.33;;;14.40;;
83435;SDS011;73365;51.688;5.132;2024-02-28T11:36:39;32.22;;;15.25;;
83435;SDS011;73365;51.688;5.132;2024-02-28T11:39:06;25.25;;;14.32;;
83435;SDS011;73365;51.688;5.132;2024-02-28T11:41:31;24.00;;;12.85;;
83435;SDS011;73365;51.688;5.132;2024-02-28T11:43:57;24.42;;;13.25;;
83435;SDS011;73365;51.688;5.132;2024-02-28T11:46:24;27.40;;;14.27;;
83435;SDS011;73365;51.688;5.132;2024-02-28T11:48:51;27.35;;;14.00;;
83435;SDS011;73365;51.688;5.132;2024-02-28T11:51:17;24.88;;;13.48;;
83435;SDS011;73365;51.688;5.132;2024-02-28T11:53:44;23.52;;;13.48;;
83435;SDS011;73365;51.688;5.132;2024-02-28T11:56:09;27.77;;;13.98;;
83435;SDS011;73365;51.688;5.132;2024-02-28T11:58:36;23.73;;;13.02;;
83435;SDS011;73365;51.688;5.132;2024-02-28T12:01:01;23.45;;;13.55;;
83435;SDS011;73365;51.688;5.132;2024-02-28T12:03:28;26.13;;;13.32;;
83435;SDS011;73365;51.688;5.132;2024-02-28T12:05:54;26.30;;;13.10;;
83435;SDS011;73365;51.688;5.132;2024-02-28T12:08:21;25.55;;;14.30;;
83435;SDS011;73365;51.688;5.132;2024-02-28T12:10:47;23.35;;;11.93;;
83435;SDS011;73365;51.688;5.132;2024-02-28T12:13:16;23.15;;;13.05;;
83435;SDS011;73365;51.688;5.132;2024-02-28T12:15:42;21.65;;;12.27;;
83435;SDS011;73365;51.688;5.132;2024-02-28T12:18:08;21.35;;;12.75;;
83435;SDS011;73365;51.688;5.132;2024-02-28T12:20:35;16.98;;;10.77;;
83435;SDS011;73365;51.688;5.132;2024-02-28T12:23:02;19.58;;;11.13;;
83435;SDS011;73365;51.688;5.132;2024-02-28T12:25:28;21.83;;;11.88;;
83435;SDS011;73365;51.688;5.132;2024-02-28T12:27:54;20.08;;;11.43;;
83435;SDS011;73365;51.688;5.132;2024-02-28T12:30:19;18.25;;;11.23;;
83435;SDS011;73365;51.688;5.132;2024-02-28T12:32:46;18.02;;;11.27;;
83435;SDS011;73365;51.688;5.132;2024-02-28T12:35:11;19.92;;;11.88;;
83435;SDS011;73365;51.688;5.132;2024-02-28T12:37:37;20.23;;;12.73;;
83435;SDS011;73365;51.688;5.132;2024-02-28T12:40:04;21.35;;;12.80;;
83435;SDS011;73365;51.688;5.132;2024-02-28T12:42:31;21.80;;;12.60;;
83435;SDS011;73365;51.688;5.132;2024-02-28T12:44:59;19.98;;;12.57;;
83435;SDS011;73365;51.688;5.132;2024-02-28T12:47:24;20.88;;;11.75;;
83435;SDS011;73365;51.688;5.132;2024-02-28T12:49:50;20.80;;;11.65;;
83435;SDS011;73365;51.688;5.132;2024-02-28T12:52:15;21.05;;;11.93;;
83435;SDS011;73365;51.688;5.132;2024-02-28T12:54:40;19.95;;;11.23;;
83435;SDS011;73365;51.688;5.132;2024-02-28T12:57:08;24.02;;;12.18;;
83435;SDS011;73365;51.688;5.132;2024-02-28T12:59:33;21.95;;;12.70;;
83435;SDS011;73365;51.688;5.132;2024-02-28T13:01:59;19.90;;;11.45;;
83435;SDS011;73365;51.688;5.132;2024-02-28T13:04:25;20.77;;;11.55;;
83435;SDS011;73365;51.688;5.132;2024-02-28T13:06:55;22.58;;;12.77;;
83435;SDS011;73365;51.688;5.132;2024-02-28T13:09:20;23.60;;;13.07;;
83435;SDS011;73365;51.688;5.132;2024-02-28T13:11:47;24.15;;;13.57;;
83435;SDS011;73365;51.688;5.132;2024-02-28T13:14:12;22.52;;;13.45;;
83435;SDS011;73365;51.688;5.132;2024-02-28T13:16:38;22.48;;;13.05;;
83435;SDS011;73365;51.688;5.132;2024-02-28T13:19:05;22.23;;;12.85;;
83435;SDS011;73365;51.688;5.132;2024-02-28T13:21:31;23.35;;;12.68;;
83435;SDS011;73365;51.688;5.132;2024-02-28T13:24:02;24.10;;;12.05;;
83435;SDS011;73365;51.688;5.132;2024-02-28T13:26:29;22.95;;;13.50;;
83435;SDS011;73365;51.688;5.132;2024-02-28T13:28:54;23.42;;;12.15;;
83435;SDS011;73365;51.688;5.132;2024-02-28T13:31:20;22.48;;;12.23;;
83435;SDS011;73365;51.688;5.132;2024-02-28T13:33:45;24.92;;;12.82;;
83435;SDS011;73365;51.688;5.132;2024-02-28T13:36:13;23.23;;;12.88;;
83435;SDS011;73365;51.688;5.132;2024-02-28T13:38:38;22.35;;;12.13;;
83435;SDS011;73365;51.688;5.132;2024-02-28T13:41:05;22.98;;;12.40;;
83435;SDS011;73365;51.688;5.132;2024-02-28T13:43:31;22.30;;;12.00;;
83435;SDS011;73365;51.688;5.132;2024-02-28T13:45:56;21.60;;;12.30;;
83435;SDS011;73365;51.688;5.132;2024-02-28T13:48:25;21.60;;;10.65;;
83435;SDS011;73365;51.688;5.132;2024-02-28T13:50:52;22.70;;;11.85;;
83435;SDS011;73365;51.688;5.132;2024-02-28T13:53:17;21.35;;;12.30;;
83435;SDS011;73365;51.688;5.132;2024-02-28T13:55:43;22.77;;;13.05;;
83435;SDS011;73365;51.688;5.132;2024-02-28T13:58:13;20.27;;;11.60;;
83435;SDS011;73365;51.688;5.132;2024-02-28T14:00:42;22.10;;;11.02;;
83435;SDS011;73365;51.688;5.132;2024-02-28T14:03:10;20.90;;;11.88;;
83435;SDS011;73365;51.688;5.132;2024-02-28T14:05:35;20.92;;;11.65;;
83435;SDS011;73365;51.688;5.132;2024-02-28T14:08:01;17.58;;;10.88;;
83435;SDS011;73365;51.688;5.132;2024-02-28T14:10:29;20.27;;;10.75;;
83435;SDS011;73365;51.688;5.132;2024-02-28T14:15:20;19.38;;;11.10;;
83435;SDS011;73365;51.688;5.132;2024-02-28T14:17:47;17.60;;;10.52;;
83435;SDS011;73365;51.688;5.132;2024-02-28T14:20:13;18.88;;;10.75;;
83435;SDS011;73365;51.688;5.132;2024-02-28T14:22:39;22.83;;;10.80;;
83435;SDS011;73365;51.688;5.132;2024-02-28T14:25:08;16.95;;;10.05;;
83435;SDS011;73365;51.688;5.132;2024-02-28T14:27:38;18.95;;;10.52;;
83435;SDS011;73365;51.688;5.132;2024-02-28T14:30:05;19.67;;;11.00;;
83435;SDS011;73365;51.688;5.132;2024-02-28T14:32:33;21.23;;;11.65;;
83435;SDS011;73365;51.688;5.132;2024-02-28T14:35:05;20.23;;;10.63;;
83435;SDS011;73365;51.688;5.132;2024-02-28T14:37:31;21.25;;;10.75;;
83435;SDS011;73365;51.688;5.132;2024-02-28T14:40:01;18.95;;;9.98;;